Time;durP1;ratioP1;P1;durP2;ratioP2;P2;SDS_P1;SDS_P2;PMS_P1;PMS_P2;Temp;Humidity;BMP_temperature;BMP_pressure;BME280_temperature;BME280_humidity;BME280_pressure;Samples;Min_cycle;Max_cycle;Signal;HPM_P1;HPM_P2
2021/12/31 00:01:35;;;;;;;;;;;;;;;11.30;100.00;100725.09;5076746;28;1075;-74
2021/12/31 00:04:03;;;;;;;;;;;;;;;11.28;100.00;100725.22;5076210;28;772;-75
2021/12/31 00:06:30;;;;;;;;;;;;;;;11.32;100.00;100717.69;5075842;28;1309;-75
2021/12/31 00:08:56;;;;;;;;;;;;;;;11.30;100.00;100734.09;5056488;28;1258;-75
2021/12/31 00:11:22;;;;;;;;;;;;;;;11.29;100.00;100718.81;5056515;28;1915;-73
2021/12/31 00:13:48;;;;;;;;;;;;;;;11.30;100.00;100714.22;5074360;28;1069;-75
2021/12/31 00:16:15;;;;;;;;;;;;;;;11.27;100.00;100715.34;5073039;28;1326;-74
2021/12/31 00:18:41;;;;;;;;;;;;;;;11.29;100.00;100696.19;5073974;28;784;-72
2021/12/31 00:21:08;;;;;;;;;;;;;;;11.34;100.00;100710.25;5073807;28;843;-74
2021/12/31 00:23:35;;;;;;;;;;;;;;;11.34;100.00;100713.84;5074057;28;858;-73
2021/12/31 00:26:01;;;;;;;;;;;;;;;11.35;100.00;100717.41;5073168;28;1311;-75
2021/12/31 00:28:27;;;;;;;;;;;;;;;11.31;100.00;100713.25;5073650;28;986;-73
2021/12/31 00:30:55;;;;;;;;;;;;;;;11.28;100.00;100710.78;5055394;28;792;-76
2021/12/31 00:33:21;;;;;;;;;;;;;;;11.28;100.00;100713.50;5073600;28;1977;-75
2021/12/31 00:35:48;;;;;;;;;;;;;;;11.24;100.00;100699.31;5054764;28;1346;-75
2021/12/31 00:38:15;;;;;;;;;;;;;;;11.27;100.00;100712.63;5073352;28;1037;-75
2021/12/31 00:40:41;;;;;;;;;;;;;;;11.25;100.00;100711.03;5073527;28;796;-73
2021/12/31 00:43:10;;;;;;;;;;;;;;;11.27;100.00;100700.91;5054895;28;1148;-74
2021/12/31 00:45:39;;;;;;;;;;;;;;;11.26;100.00;100700.03;5072294;28;866;-74
2021/12/31 00:48:05;;;;;;;;;;;;;;;11.27;100.00;100701.75;5070874;28;1356;-75
2021/12/31 00:50:32;;;;;;;;;;;;;;;11.28;100.00;100710.78;5054653;28;1174;-76
2021/12/31 00:52:58;;;;;;;;;;;;;;;11.30;100.00;100711.50;5052070;28;1910;-75
2021/12/31 00:55:26;;;;;;;;;;;;;;;11.27;100.00;100714.50;5051884;28;1053;-74
2021/12/31 00:57:52;;;;;;;;;;;;;;;11.29;100.00;100710.66;5034104;28;1409;-74
2021/12/31 01:00:18;;;;;;;;;;;;;;;11.30;100.00;100722.38;5052113;28;1066;-73
2021/12/31 01:02:46;;;;;;;;;;;;;;;11.29;100.00;100712.50;5051938;28;920;-73
2021/12/31 01:05:12;;;;;;;;;;;;;;;11.29;100.00;100721.53;5034105;28;904;-75
2021/12/31 01:07:38;;;;;;;;;;;;;;;11.26;100.00;100720.91;5050853;28;1403;-74
2021/12/31 01:10:05;;;;;;;;;;;;;;;11.27;100.00;100723.50;5033849;28;824;-73
2021/12/31 01:12:33;;;;;;;;;;;;;;;11.27;100.00;100719.94;5051317;28;1906;-75
2021/12/31 01:15:03;;;;;;;;;;;;;;;11.25;100.00;100713.75;5051730;28;813;-73
2021/12/31 01:17:49;;;;;;;;;;;;;;;11.29;100.00;100723.38;5052555;28;1289;-73
2021/12/31 01:20:17;;;;;;;;;;;;;;;11.28;100.00;100717.06;5053098;28;856;-74
2021/12/31 01:22:43;;;;;;;;;;;;;;;11.28;100.00;100725.22;5051487;28;800;-75
2021/12/31 01:25:10;;;;;;;;;;;;;;;11.27;100.00;100736.22;5050932;28;1069;-73
2021/12/31 01:27:39;;;;;;;;;;;;;;;11.29;100.00;100731.50;5033664;28;1427;-73
2021/12/31 01:30:06;;;;;;;;;;;;;;;11.30;100.00;100731.38;5051633;28;884;-74
2021/12/31 01:32:32;;;;;;;;;;;;;;;11.29;100.00;100734.22;5051432;28;1887;-74
2021/12/31 01:34:59;;;;;;;;;;;;;;;11.31;100.00;100732.25;5050974;28;1484;-71
2021/12/31 01:37:25;;;;;;;;;;;;;;;11.32;100.00;100729.41;5071164;28;1400;-73
2021/12/31 01:39:51;;;;;;;;;;;;;;;11.30;100.00;100731.38;5071412;28;994;-73
2021/12/31 01:42:23;;;;;;;;;;;;;;;11.30;100.00;100734.09;5071329;28;955;-75
2021/12/31 01:44:56;;;;;;;;;;;;;;;11.31;100.00;100737.69;5071673;28;1058;-74
2021/12/31 01:47:33;;;;;;;;;;;;;;;11.29;100.00;100735.13;5071599;28;1344;-74
2021/12/31 01:50:05;;;;;;;;;;;;;;;11.29;100.00;100735.13;5058653;28;1322;-72
2021/12/31 01:52:31;;;;;;;;;;;;;;;11.31;100.00;100732.25;5051873;28;1971;-74
2021/12/31 01:54:57;;;;;;;;;;;;;;;11.32;100.00;100723.97;5051630;28;904;-73
2021/12/31 01:57:24;;;;;;;;;;;;;;;11.34;100.00;100726.56;5074758;23;3493;-68
2021/12/31 01:59:51;;;;;;;;;;;;;;;11.35;100.00;100723.72;5090915;28;999;-67
2021/12/31 02:02:19;;;;;;;;;;;;;;;11.33;100.00;100730.25;5091815;28;1054;-70
2021/12/31 02:04:46;;;;;;;;;;;;;;;11.35;100.00;100736.44;5090993;28;827;-71
2021/12/31 02:07:12;;;;;;;;;;;;;;;11.34;100.00;100726.56;5090683;28;1311;-70
2021/12/31 02:09:45;;;;;;;;;;;;;;;11.34;100.00;100735.59;5091144;28;932;-70
2021/12/31 02:12:11;;;;;;;;;;;;;;;11.35;100.00;100729.13;5090897;28;1921;-71
2021/12/31 02:14:38;;;;;;;;;;;;;;;11.37;100.00;100729.00;5091052;28;1056;-70
2021/12/31 02:17:09;;;;;;;;;;;;;;;11.41;100.00;100721.47;5090354;28;1372;-70
2021/12/31 02:19:35;;;;;;;;;;;;;;;11.36;100.00;100730.03;5089713;28;983;-70
2021/12/31 02:22:04;;;;;;;;;;;;;;;11.38;100.00;100733.47;5090802;28;851;-69
2021/12/31 02:24:30;;;;;;;;;;;;;;;11.37;100.00;100737.16;5090859;28;1006;-70
2021/12/31 02:26:58;;;;;;;;;;;;;;;11.38;100.00;100733.47;5090484;28;1329;-70
2021/12/31 02:29:25;;;;;;;;;;;;;;;11.39;100.00;100737.91;5094519;28;1103;-70
2021/12/31 02:31:52;;;;;;;;;;;;;;;11.42;100.00;100739.50;5094735;28;1922;-71
2021/12/31 02:34:18;;;;;;;;;;;;;;;11.43;100.00;100736.66;5094764;28;832;-70
2021/12/31 02:36:44;;;;;;;;;;;;;;;11.43;100.00;100752.97;5094184;28;1394;-71
2021/12/31 02:39:12;;;;;;;;;;;;;;;11.43;100.00;100742.09;5094503;28;1041;-69
2021/12/31 02:41:38;;;;;;;;;;;;;;;11.45;100.00;100736.53;5094665;28;1009;-71
2021/12/31 02:44:05;;;;;;;;;;;;;;;11.43;100.00;100747.53;5094483;28;990;-71
2021/12/31 02:46:31;;;;;;;;;;;;;;;11.46;100.00;100736.38;5094301;28;1033;-71
2021/12/31 02:48:58;;;;;;;;;;;;;;;11.45;100.00;100740.13;5097574;28;1408;-71
2021/12/31 02:51:25;;;;;;;;;;;;;;;11.43;100.00;100752.97;5094502;28;986;-69
2021/12/31 02:53:52;;;;;;;;;;;;;;;11.41;100.00;100744.09;5092732;28;1909;-71
2021/12/31 02:56:20;;;;;;;;;;;;;;;11.41;100.00;100732.34;5094126;28;982;-70
2021/12/31 02:58:46;;;;;;;;;;;;;;;11.40;100.00;100753.22;5094062;28;1404;-71
2021/12/31 03:01:13;;;;;;;;;;;;;;;11.36;100.00;100735.47;5094296;28;780;-70
2021/12/31 03:03:40;;;;;;;;;;;;;;;11.36;100.00;100736.31;5092911;28;1538;-69
2021/12/31 03:06:07;;;;;;;;;;;;;;;11.36;100.00;100739.03;5093844;28;1048;-69
2021/12/31 03:08:36;;;;;;;;;;;;;;;11.36;100.00;100744.47;5094142;28;1295;-71
2021/12/31 03:11:03;;;;;;;;;;;;;;;11.37;100.00;100732.59;5093608;28;827;-71
2021/12/31 03:13:31;;;;;;;;;;;;;;;11.37;100.00;100726.28;5094108;28;1910;-71
2021/12/31 03:15:58;;;;;;;;;;;;;;;11.38;100.00;100736.19;5093906;28;950;-71
2021/12/31 03:18:25;;;;;;;;;;;;;;;11.35;100.00;100731.84;5094142;28;1287;-70
2021/12/31 03:21:01;;;;;;;;;;;;;;;11.34;100.00;100729.28;5094030;28;1058;-70
2021/12/31 03:23:28;;;;;;;;;;;;;;;11.33;100.00;100732.97;5095083;28;1034;-70
2021/12/31 03:25:54;;;;;;;;;;;;;;;11.30;100.00;100731.38;5093427;28;1002;-70
2021/12/31 03:28:20;;;;;;;;;;;;;;;11.34;100.00;100737.44;5093592;28;1297;-70
2021/12/31 03:30:48;;;;;;;;;;;;;;;11.33;100.00;100738.41;5093670;28;943;-71
2021/12/31 03:33:15;;;;;;;;;;;;;;;11.35;100.00;100734.56;5093465;28;1983;-69
2021/12/31 03:35:42;;;;;;;;;;;;;;;11.38;100.00;100736.19;5092764;28;1482;-70
2021/12/31 03:38:08;;;;;;;;;;;;;;;11.41;100.00;100744.09;5093348;28;1328;-70
2021/12/31 03:40:35;;;;;;;;;;;;;;;11.37;100.00;100746.19;5093666;28;1025;-71
2021/12/31 03:43:01;;;;;;;;;;;;;;;11.33;100.00;100727.53;5093216;28;899;-70
2021/12/31 03:45:27;;;;;;;;;;;;;;;11.34;100.00;100737.44;5092962;28;997;-71
2021/12/31 03:47:55;;;;;;;;;;;;;;;11.30;100.00;100735.97;5092923;28;1381;-70
2021/12/31 03:50:21;;;;;;;;;;;;;;;11.27;100.00;100744.38;5077545;28;1201;-70
2021/12/31 03:52:48;;;;;;;;;;;;;;;11.27;100.00;100742.50;5073019;28;1906;-69
2021/12/31 03:55:14;;;;;;;;;;;;;;;11.27;100.00;100744.38;5078492;28;2228;-69
2021/12/31 03:57:40;;;;;;;;;;;;;;;11.25;100.00;100749.06;5092454;28;1473;-69
2021/12/31 04:00:08;;;;;;;;;;;;;;;11.26;100.00;100735.34;5084613;28;1184;-71
2021/12/31 04:02:34;;;;;;;;;;;;;;;11.27;100.00;100733.50;5092975;28;1021;-70
2021/12/31 04:05:02;;;;;;;;;;;;;;;11.23;100.00;100735.63;5093472;28;974;-70
2021/12/31 04:07:28;;;;;;;;;;;;;;;11.23;100.00;100730.19;5099034;28;1412;-69
2021/12/31 04:09:55;;;;;;;;;;;;;;;11.28;100.00;100719.78;5099969;28;1054;-70
2021/12/31 04:12:21;;;;;;;;;;;;;;;11.26;100.00;100721.75;5094158;28;1914;-70
2021/12/31 04:14:47;;;;;;;;;;;;;;;11.25;100.00;100721.91;5093091;28;784;-70
2021/12/31 04:17:14;;;;;;;;;;;;;;;11.25;100.00;100721.91;5092299;28;1325;-69
2021/12/31 04:19:41;;;;;;;;;;;;;;;11.23;100.00;100720.16;5088989;28;1182;-70
2021/12/31 04:22:12;;;;;;;;;;;;;;;11.22;100.00;100723.91;5074939;28;1415;-69
2021/12/31 04:24:52;;;;;;;;;;;;;;;11.25;100.00;100711.03;5072392;28;934;-70
2021/12/31 04:27:19;;;;;;;;;;;;;;;11.26;100.00;100723.63;5072156;28;1306;-70
2021/12/31 04:29:50;;;;;;;;;;;;;;;11.22;100.00;100715.75;5072245;28;990;-68
2021/12/31 04:32:17;;;;;;;;;;;;;;;11.21;100.00;100710.41;5072315;28;1923;-70
2021/12/31 04:34:43;;;;;;;;;;;;;;;11.27;100.00;100711.78;5072136;28;982;-69
2021/12/31 04:37:11;;;;;;;;;;;;;;;11.29;100.00;100704.34;5071879;28;1316;-69
2021/12/31 04:39:37;;;;;;;;;;;;;;;11.27;100.00;100698.19;5073071;28;859;-70
2021/12/31 04:42:04;;;;;;;;;;;;;;;11.24;100.00;100702.03;5072197;28;831;-69
2021/12/31 04:44:30;;;;;;;;;;;;;;;11.22;100.00;100702.16;5072011;28;993;-70
2021/12/31 04:46:56;;;;;;;;;;;;;;;11.27;100.00;100692.75;5071666;28;1402;-70
2021/12/31 04:49:23;;;;;;;;;;;;;;;11.26;100.00;100691.03;5071876;28;1072;-68
2021/12/31 04:51:49;;;;;;;;;;;;;;;11.21;100.00;100684.13;5071238;28;906;-68
2021/12/31 04:54:16;;;;;;;;;;;;;;;11.26;100.00;100685.59;5071624;28;1913;-70
2021/12/31 04:56:43;;;;;;;;;;;;;;;11.23;100.00;100684.84;5071459;28;1321;-70
2021/12/31 04:59:10;;;;;;;;;;;;;;;11.23;100.00;100698.44;5071674;28;982;-70
2021/12/31 05:01:36;;;;;;;;;;;;;;;11.26;100.00;100701.88;5071628;28;723;-70
2021/12/31 05:04:02;;;;;;;;;;;;;;;11.26;100.00;100700.03;5071929;28;706;-69
2021/12/31 05:06:28;;;;;;;;;;;;;;;11.27;100.00;100700.91;5072113;28;1053;-69
2021/12/31 05:08:56;;;;;;;;;;;;;;;11.26;100.00;100705.47;5072090;28;1280;-69
2021/12/31 05:11:23;;;;;;;;;;;;;;;11.28;100.00;100700.78;5071463;28;859;-70
2021/12/31 05:13:49;;;;;;;;;;;;;;;11.26;100.00;100707.31;5071178;28;1914;-69
2021/12/31 05:16:16;;;;;;;;;;;;;;;11.23;100.00;100703.88;5071156;28;1120;-69
2021/12/31 05:18:42;;;;;;;;;;;;;;;11.21;100.00;100711.28;5071222;28;1421;-69
2021/12/31 05:21:08;;;;;;;;;;;;;;;11.16;100.00;100702.66;5071538;28;835;-70
2021/12/31 05:23:34;;;;;;;;;;;;;;;11.18;100.00;100703.41;5071248;28;835;-70
2021/12/31 05:26:01;;;;;;;;;;;;;;;11.19;100.00;100701.53;5071035;28;873;-69
2021/12/31 05:28:28;;;;;;;;;;;;;;;11.17;100.00;100707.13;5071266;28;1401;-70
2021/12/31 05:30:54;;;;;;;;;;;;;;;11.16;100.00;100699.09;5070875;28;788;-69
2021/12/31 05:33:21;;;;;;;;;;;;;;;11.17;100.00;100709.84;5071370;28;1965;-69
2021/12/31 05:35:47;;;;;;;;;;;;;;;11.16;100.00;100707.25;5071142;28;1010;-68
2021/12/31 05:38:13;;;;;;;;;;;;;;;11.12;100.00;100712.06;5090470;28;1574;-69
2021/12/31 05:40:39;;;;;;;;;;;;;;;11.20;100.00;100709.56;5091342;28;1001;-68
2021/12/31 05:43:06;;;;;;;;;;;;;;;11.24;100.00;100712.91;5091264;28;985;-71
2021/12/31 05:45:33;;;;;;;;;;;;;;;11.22;100.00;100706.72;5089995;28;798;-70
2021/12/31 05:47:59;;;;;;;;;;;;;;;11.21;100.00;100705.88;5090911;28;1377;-67
2021/12/31 05:50:28;;;;;;;;;;;;;;;11.23;100.00;100703.88;5090831;28;1013;-68
2021/12/31 05:52:55;;;;;;;;;;;;;;;11.25;100.00;100711.03;5090608;28;1918;-72
2021/12/31 05:55:22;;;;;;;;;;;;;;;11.20;100.00;100706.84;5091180;28;1030;-68
2021/12/31 05:57:48;;;;;;;;;;;;;;;11.23;100.00;100713.88;5090817;28;1331;-69
2021/12/31 06:00:15;;;;;;;;;;;;;;;11.21;100.00;100710.41;5089733;28;1244;-70
2021/12/31 06:02:43;;;;;;;;;;;;;;;11.22;100.00;100712.16;5091803;28;1073;-69
2021/12/31 06:05:09;;;;;;;;;;;;;;;11.23;100.00;100717.44;5095344;28;887;-69
2021/12/31 06:07:36;;;;;;;;;;;;;;;11.21;100.00;100708.56;5094677;28;1403;-70
2021/12/31 06:10:02;;;;;;;;;;;;;;;11.24;100.00;100718.34;5095910;28;835;-72
2021/12/31 06:12:28;;;;;;;;;;;;;;;11.23;100.00;100708.44;5096210;28;951;-71
2021/12/31 06:14:58;;;;;;;;;;;;;;;11.24;100.00;100715.63;5096275;28;1983;-71
2021/12/31 06:17:26;;;;;;;;;;;;;;;11.26;100.00;100719.03;5093725;28;1308;-72
2021/12/31 06:19:54;;;;;;;;;;;;;;;11.27;100.00;100717.22;5086901;28;1290;-70
2021/12/31 06:22:20;;;;;;;;;;;;;;;11.33;100.00;100723.00;5087421;28;1261;-70
2021/12/31 06:24:46;;;;;;;;;;;;;;;11.38;100.00;100717.16;5084095;28;1296;-68
2021/12/31 06:27:12;;;;;;;;;;;;;;;11.35;100.00;100728.28;5093684;28;1381;-70
2021/12/31 06:29:39;;;;;;;;;;;;;;;11.35;100.00;100723.72;5094768;28;983;-69
2021/12/31 06:32:05;;;;;;;;;;;;;;;11.33;100.00;100732.97;5094868;28;812;-70
2021/12/31 06:34:31;;;;;;;;;;;;;;;11.29;100.00;100731.50;5094638;28;1983;-70
2021/12/31 06:36:59;;;;;;;;;;;;;;;11.27;100.00;100736.22;5094709;28;1339;-71
2021/12/31 06:39:26;;;;;;;;;;;;;;;11.26;100.00;100740.78;5094545;28;898;-67
2021/12/31 06:41:53;;;;;;;;;;;;;;;11.25;100.00;100733.66;5094387;28;1006;-70
2021/12/31 06:44:19;;;;;;;;;;;;;;;11.22;100.00;100740.19;5094579;28;847;-68
2021/12/31 06:46:45;;;;;;;;;;;;;;;11.22;100.00;100750.19;5095206;28;1637;-68
2021/12/31 06:49:12;;;;;;;;;;;;;;;11.25;100.00;100738.19;5097359;28;1593;-70
2021/12/31 06:51:38;;;;;;;;;;;;;;;11.23;100.00;100741.06;5095298;28;984;-70
2021/12/31 06:54:05;;;;;;;;;;;;;;;11.22;100.00;100748.34;5094549;28;1890;-70
2021/12/31 06:56:32;;;;;;;;;;;;;;;11.22;100.00;100751.06;5093773;28;1487;-70
2021/12/31 06:58:58;;;;;;;;;;;;;;;11.25;100.00;100740.91;5094020;28;1383;-71
2021/12/31 07:01:25;;;;;;;;;;;;;;;11.22;100.00;100739.31;5094584;28;1566;-70
2021/12/31 07:03:51;;;;;;;;;;;;;;;11.23;100.00;100749.19;5094265;28;1585;-71
2021/12/31 07:06:17;;;;;;;;;;;;;;;11.22;100.00;100748.34;5092338;28;1475;-71
2021/12/31 07:08:45;;;;;;;;;;;;;;;11.22;100.00;100745.63;5093984;28;1515;-70
2021/12/31 07:11:13;;;;;;;;;;;;;;;11.20;100.00;100752.19;5094215;28;1543;-71
2021/12/31 07:13:39;;;;;;;;;;;;;;;11.23;100.00;100743.78;5092342;28;1930;-71
2021/12/31 07:16:05;;;;;;;;;;;;;;;11.24;100.00;100740.06;5095790;28;1593;-70
2021/12/31 07:18:32;;;;;;;;;;;;;;;11.21;100.00;100743.91;5084253;28;1401;-72
2021/12/31 07:20:58;;;;;;;;;;;;;;;11.23;100.00;100746.50;5089768;28;1515;-70
2021/12/31 07:23:25;;;;;;;;;;;;;;;11.21;100.00;100738.47;5092921;28;1405;-70
2021/12/31 07:25:52;;;;;;;;;;;;;;;11.21;100.00;100749.34;5093135;28;1495;-70
2021/12/31 07:28:19;;;;;;;;;;;;;;;11.21;100.00;100753.88;5092741;28;1866;-71
2021/12/31 07:30:46;;;;;;;;;;;;;;;11.19;100.00;100754.03;5092791;28;1459;-71
2021/12/31 07:33:16;;;;;;;;;;;;;;;11.21;100.00;100762.03;5093237;28;1910;-70
2021/12/31 07:35:42;;;;;;;;;;;;;;;11.20;100.00;100763.91;5092763;28;1487;-72
2021/12/31 07:38:17;;;;;;;;;;;;;;;11.22;100.00;100767.38;5093512;28;1422;-70
2021/12/31 07:40:44;;;;;;;;;;;;;;;11.24;100.00;100767.25;5093460;28;1066;-71
2021/12/31 07:43:10;;;;;;;;;;;;;;;11.26;100.00;100780.69;5093364;28;1052;-70
2021/12/31 07:45:38;;;;;;;;;;;;;;;11.28;100.00;100770.56;5093201;28;1487;-71
2021/12/31 07:48:05;;;;;;;;;;;;;;;11.27;100.00;100777.84;5093153;28;1386;-70
2021/12/31 07:50:32;;;;;;;;;;;;;;;11.27;100.00;100777.84;5092179;28;1566;-70
2021/12/31 07:52:58;;;;;;;;;;;;;;;11.26;100.00;100767.09;5091970;28;1586;-71
2021/12/31 07:55:24;;;;;;;;;;;;;;;11.28;100.00;100767.84;5091706;28;1910;-70
2021/12/31 07:57:51;;;;;;;;;;;;;;;11.26;100.00;100762.53;5092312;28;1554;-70
2021/12/31 08:00:17;;;;;;;;;;;;;;;11.29;100.00;100772.28;5092639;28;1456;-69
2021/12/31 08:02:45;;;;;;;;;;;;;;;11.29;100.00;100773.16;5091958;28;1368;-70
2021/12/31 08:05:11;;;;;;;;;;;;;;;11.29;100.00;100777.72;5100263;22;1885;-74
2021/12/31 08:07:37;;;;;;;;;;;;;;;11.29;100.00;100772.28;5055405;28;776;-75
2021/12/31 08:10:04;;;;;;;;;;;;;;;11.30;100.00;100769.41;5055907;28;1090;-72
2021/12/31 08:12:30;;;;;;;;;;;;;;;11.31;100.00;100783.91;5050526;28;1418;-74
2021/12/31 08:14:56;;;;;;;;;;;;;;;11.35;100.00;100775.34;5042737;28;1970;-73
2021/12/31 08:17:23;;;;;;;;;;;;;;;11.36;100.00;100773.50;5076960;28;859;-74
2021/12/31 08:19:50;;;;;;;;;;;;;;;11.36;100.00;100774.34;5059186;28;1172;-74
2021/12/31 08:22:16;;;;;;;;;;;;;;;11.36;100.00;100776.22;5058964;28;792;-73
2021/12/31 08:24:43;;;;;;;;;;;;;;;11.37;100.00;100772.50;5076115;28;1302;-75
2021/12/31 08:27:09;;;;;;;;;;;;;;;11.38;100.00;100763.34;5075680;28;1149;-74
2021/12/31 08:29:35;;;;;;;;;;;;;;;11.41;100.00;100748.66;5075678;28;1141;-75
2021/12/31 08:32:01;;;;;;;;;;;;;;;11.37;100.00;100746.19;5075728;28;1145;-73
2021/12/31 08:34:28;;;;;;;;;;;;;;;11.42;100.00;100737.63;5074951;28;1910;-74
2021/12/31 08:36:55;;;;;;;;;;;;;;;11.44;100.00;100740.22;5074831;28;1121;-75
2021/12/31 08:39:21;;;;;;;;;;;;;;;11.44;100.00;100740.22;5082001;28;959;-76
2021/12/31 08:41:48;;;;;;;;;;;;;;;11.45;100.00;100737.41;5083446;28;1188;-75
2021/12/31 08:44:14;;;;;;;;;;;;;;;11.43;100.00;100725.78;5064836;28;1465;-73
2021/12/31 08:46:41;;;;;;;;;;;;;;;11.44;100.00;100721.19;5075669;28;1397;-74
2021/12/31 08:49:08;;;;;;;;;;;;;;;11.49;100.00;100724.38;5070541;28;1564;-74
2021/12/31 08:51:34;;;;;;;;;;;;;;;11.49;100.00;100729.81;5043367;28;1528;-74
2021/12/31 08:54:02;;;;;;;;;;;;;;;11.52;100.00;100727.72;5054159;28;1997;-73
2021/12/31 08:56:28;;;;;;;;;;;;;;;11.55;100.00;100727.44;5074047;28;1521;-73
2021/12/31 08:58:55;;;;;;;;;;;;;;;11.56;100.00;100723.75;5053672;28;1580;-74
2021/12/31 09:01:21;;;;;;;;;;;;;;;11.55;100.00;100716.56;5073342;28;1006;-72
2021/12/31 09:03:47;;;;;;;;;;;;;;;11.56;100.00;100731.03;5073059;28;1469;-73
2021/12/31 09:06:17;;;;;;;;;;;;;;;11.56;100.00;100731.91;5068881;28;1529;-73
2021/12/31 09:08:44;;;;;;;;;;;;;;;11.57;100.00;100730.03;5045546;28;1513;-73
2021/12/31 09:11:12;;;;;;;;;;;;;;;11.61;100.00;100744.22;5036542;28;1548;-73
2021/12/31 09:13:38;;;;;;;;;;;;;;;11.61;100.00;100753.28;5068914;28;1522;-72
2021/12/31 09:16:05;;;;;;;;;;;;;;;11.65;100.00;100745.69;5036820;28;1910;-73
2021/12/31 09:18:31;;;;;;;;;;;;;;;11.65;100.00;100742.97;5053409;28;1041;-74
2021/12/31 09:20:57;;;;;;;;;;;;;;;11.64;100.00;100749.44;5055053;28;1458;-72
2021/12/31 09:23:23;;;;;;;;;;;;;;;11.67;100.00;100757.31;5053105;28;1310;-72
2021/12/31 09:25:50;;;;;;;;;;;;;;;11.70;100.00;100746.16;5053347;28;875;-73
2021/12/31 09:28:17;;;;;;;;;;;;;;;11.76;100.00;100742.94;5035706;28;840;-73
2021/12/31 09:30:44;;;;;;;;;;;;;;;11.79;100.00;100737.22;5053377;28;1074;-72
2021/12/31 09:33:11;;;;;;;;;;;;;;;11.82;100.00;100731.50;5035732;28;1328;-72
2021/12/31 09:35:39;;;;;;;;;;;;;;;11.83;100.00;100741.38;5035065;28;1918;-71
2021/12/31 09:38:09;;;;;;;;;;;;;;;11.80;100.00;100738.94;5020736;28;1361;-75
2021/12/31 09:40:35;;;;;;;;;;;;;;;11.76;100.00;100737.50;5042113;28;1487;-72
2021/12/31 09:43:03;;;;;;;;;;;;;;;11.78;100.00;100742.78;5041878;28;805;-74
2021/12/31 09:45:31;;;;;;;;;;;;;;;11.76;100.00;100742.94;5057173;28;1296;-72
2021/12/31 09:47:59;;;;;;;;;;;;;;;11.76;100.00;100740.22;5055008;28;1074;-72
2021/12/31 09:50:26;;;;;;;;;;;;;;;11.78;100.00;100738.19;5054143;28;1015;-73
2021/12/31 09:52:53;;;;;;;;;;;;;;;11.77;100.00;100738.34;5020343;28;1252;-73
2021/12/31 09:55:34;;;;;;;;;;;;;;;11.79;100.00;100734.50;5036775;28;2321;-71
2021/12/31 09:58:00;;;;;;;;;;;;;;;11.80;100.00;100730.78;5062883;28;1003;-71
2021/12/31 10:00:27;;;;;;;;;;;;;;;11.79;100.00;100726.34;5046295;28;1252;-71
2021/12/31 10:05:46;;;;;;;;;;;;;;;11.79;100.00;100739.09;5112540;27;1431;-73
2021/12/31 10:08:16;;;;;;;;;;;;;;;11.77;100.00;100733.78;5113244;28;1194;-74
2021/12/31 10:10:43;;;;;;;;;;;;;;;11.77;100.00;100731.06;5110478;28;1097;-71
2021/12/31 10:13:09;;;;;;;;;;;;;;;11.80;100.00;100732.63;5109552;28;1394;-71
2021/12/31 10:15:38;;;;;;;;;;;;;;;11.80;100.00;100725.34;5107853;28;955;-71
2021/12/31 10:18:09;;;;;;;;;;;;;;;11.81;100.00;100718.03;5108889;28;863;-73
2021/12/31 10:20:46;;;;;;;;;;;;;;;11.81;100.00;100718.94;5109504;28;796;-74
2021/12/31 10:23:15;;;;;;;;;;;;;;;11.82;100.00;100719.78;5094549;28;1403;-73
2021/12/31 10:25:41;;;;;;;;;;;;;;;11.84;100.00;100715.06;5111386;28;1971;-73
2021/12/31 10:28:11;;;;;;;;;;;;;;;11.86;100.00;100716.63;5112409;28;784;-71
2021/12/31 10:30:38;;;;;;;;;;;;;;;11.88;100.00;100708.38;5108308;28;1006;-71
2021/12/31 10:33:04;;;;;;;;;;;;;;;11.88;100.00;100701.06;5108310;28;832;-72
2021/12/31 10:35:38;;;;;;;;;;;;;;;11.92;100.00;100706.22;5108369;28;1376;-73
2021/12/31 10:38:06;;;;;;;;;;;;;;;11.94;100.00;100696.94;5109123;28;1243;-74
2021/12/31 10:40:36;;;;;;;;;;;;;;;11.96;100.00;100699.53;5112499;28;799;-75
2021/12/31 10:43:10;;;;;;;;;;;;;;;11.98;100.00;100697.56;5113642;28;1026;-74
2021/12/31 10:45:37;;;;;;;;;;;;;;;12.01;100.00;100697.28;5110501;28;1984;-72
2021/12/31 10:48:07;;;;;;;;;;;;;;;12.07;100.00;100702.22;5108777;28;1006;-72
2021/12/31 10:50:33;;;;;;;;;;;;;;;12.07;100.00;100707.66;5109507;28;969;-74
2021/12/31 10:53:02;;;;;;;;;;;;;;;12.06;100.00;100700.47;5096191;28;1342;-73
2021/12/31 10:55:30;;;;;;;;;;;;;;;12.09;100.00;100697.47;5090667;28;1411;-73
2021/12/31 10:57:59;;;;;;;;;;;;;;;12.09;100.00;100697.47;5074844;28;1512;-75
2021/12/31 11:00:26;;;;;;;;;;;;;;;12.10;100.00;100685.59;5089569;28;1535;-73
2021/12/31 11:02:53;;;;;;;;;;;;;;;12.12;100.00;100683.63;5090266;28;1050;-72
2021/12/31 11:05:20;;;;;;;;;;;;;;;12.17;100.00;100686.81;5090227;28;1914;-74
2021/12/31 11:07:47;;;;;;;;;;;;;;;12.18;100.00;100677.63;5089508;28;804;-74
2021/12/31 11:10:14;;;;;;;;;;;;;;;12.22;100.00;100672.78;5089417;28;1073;-74
2021/12/31 11:12:43;;;;;;;;;;;;;;;12.29;100.00;100679.38;5090008;28;800;-73
2021/12/31 11:15:11;;;;;;;;;;;;;;;12.28;100.00;100668.63;5089065;28;1551;-72
2021/12/31 11:17:37;;;;;;;;;;;;;;;12.29;100.00;100675.81;5076738;28;807;-75
2021/12/31 11:20:05;;;;;;;;;;;;;;;12.34;100.00;100679.84;5077098;28;1002;-72
2021/12/31 11:22:32;;;;;;;;;;;;;;;12.35;100.00;100667.09;5075705;28;1073;-73
2021/12/31 11:25:17;;;;;;;;;;;;;;;12.31;100.00;100671.09;5074858;28;1911;-75
2021/12/31 11:27:45;;;;;;;;;;;;;;;12.34;100.00;100668.94;5077309;28;958;-75
2021/12/31 11:30:24;;;;;;;;;;;;;;;12.36;100.00;100671.56;5076824;28;1571;-74
2021/12/31 11:32:54;;;;;;;;;;;;;;;12.39;100.00;100663.94;5074539;28;1081;-74
2021/12/31 11:35:31;;;;;;;;;;;;;;;12.42;100.00;100672.84;5075267;28;1298;-73
2021/12/31 11:37:57;;;;;;;;;;;;;;;12.42;100.00;100668.25;5075736;28;1092;-73
2021/12/31 11:40:27;;;;;;;;;;;;;;;12.42;100.00;100662.81;5075178;28;902;-74
2021/12/31 11:43:09;;;;;;;;;;;;;;;12.43;100.00;100653.66;5075333;28;1089;-73
2021/12/31 11:45:36;;;;;;;;;;;;;;;12.45;100.00;100639.91;5075870;28;1911;-73
2021/12/31 11:48:07;;;;;;;;;;;;;;;12.51;100.00;100634.75;5076976;28;1571;-75
2021/12/31 11:50:34;;;;;;;;;;;;;;;12.55;100.00;100625.31;5076319;28;1533;-75
2021/12/31 11:53:01;;;;;;;;;;;;;;;12.60;100.00;100630.34;5076878;28;1072;-75
2021/12/31 11:55:27;;;;;;;;;;;;;;;12.71;100.00;100624.78;5056648;28;1357;-75
2021/12/31 11:57:55;;;;;;;;;;;;;;;12.78;100.00;100619.63;5081334;28;1508;-74
2021/12/31 12:00:25;;;;;;;;;;;;;;;12.82;100.00;100625.66;5094635;28;911;-75
2021/12/31 12:02:52;;;;;;;;;;;;;;;12.87;100.00;100626.94;5094833;28;1164;-74
2021/12/31 12:05:22;;;;;;;;;;;;;;;12.97;100.00;100620.63;5094737;28;1953;-74
2021/12/31 12:07:49;;;;;;;;;;;;;;;13.00;100.00;100623.94;5092574;28;1575;-73
2021/12/31 12:10:19;;;;;;;;;;;;;;;12.99;100.00;100616.75;5094961;28;1088;-74
2021/12/31 12:12:49;;;;;;;;;;;;;;;12.99;100.00;100618.66;5094632;28;835;-73
2021/12/31 12:15:23;;;;;;;;;;;;;;;13.00;100.00;100615.78;5094845;28;1369;-76
2021/12/31 12:17:50;;;;;;;;;;;;;;;12.94;100.00;100613.59;5097795;28;788;-75
2021/12/31 12:20:19;;;;;;;;;;;;;;;12.94;100.00;100612.75;5099149;28;937;-76
2021/12/31 12:22:50;;;;;;;;;;;;;;;12.90;100.00;100613.03;5096219;28;1005;-75
2021/12/31 12:25:17;;;;;;;;;;;;;;;12.89;100.00;100607.72;5096496;28;1985;-74
2021/12/31 12:27:46;;;;;;;;;;;;;;;12.87;100.00;100613.31;5067058;28;1516;-74
2021/12/31 12:30:13;;;;;;;;;;;;;;;12.85;100.00;100617.19;5075221;28;986;-74
2021/12/31 12:32:52;;;;;;;;;;;;;;;12.77;100.00;100617.03;5076081;28;982;-74
2021/12/31 12:35:21;;;;;;;;;;;;;;;12.73;100.00;100616.44;5075818;28;1295;-74
2021/12/31 12:37:55;;;;;;;;;;;;;;;12.73;100.00;100627.34;5075114;28;984;-72
2021/12/31 12:40:21;;;;;;;;;;;;;;;12.63;100.00;100629.22;5075273;28;1239;-74
2021/12/31 12:42:47;;;;;;;;;;;;;;;12.61;100.00;100615.72;5078800;28;1508;-74
2021/12/31 12:45:14;;;;;;;;;;;;;;;12.59;100.00;100615.00;5095543;28;1985;-74